Time;durP1;ratioP1;P1;durP2;ratioP2;P2;SDS_P1;SDS_P2;PMS_P1;PMS_P2;Temp;Humidity;BMP_temperature;BMP_pressure;BME280_temperature;BME280_humidity;BME280_pressure;Samples;Min_cycle;Max_cycle;Signal;HPM_P1;HPM_P2
2023/01/15 00:01:18;;;;;;;8.47;0.90;;;7.60;99.90;;;;;;5077560;28;20024;-81
2023/01/15 00:03:44;;;;;;;9.00;1.13;;;7.60;99.90;;;;;;5084358;28;20040;-80
2023/01/15 00:06:09;;;;;;;13.37;1.10;;;7.60;99.90;;;;;;5064271;28;20017;-81
2023/01/15 00:08:35;;;;;;;17.27;1.40;;;7.50;99.90;;;;;;5075482;28;20009;-80
2023/01/15 00:11:04;;;;;;;11.73;1.20;;;7.60;99.90;;;;;;5063260;28;20028;-79
2023/01/15 00:13:30;;;;;;;9.10;0.80;;;7.60;99.90;;;;;;5083430;28;20032;-85
2023/01/15 00:16:07;;;;;;;9.77;1.00;;;7.60;99.90;;;;;;5059716;28;20089;-85
2023/01/15 00:18:33;;;;;;;11.07;1.17;;;7.60;99.90;;;;;;5074128;28;20031;-85
2023/01/15 00:21:03;;;;;;;9.80;0.97;;;7.60;99.90;;;;;;5073928;28;20029;-88
2023/01/15 00:29:17;;;;;;;7.50;1.10;;;7.60;99.90;;;;;;5072821;28;20021;-85
2023/01/15 00:31:49;;;;;;;13.17;1.20;;;7.50;99.90;;;;;;5069110;28;20036;-85
2023/01/15 00:34:15;;;;;;;13.87;1.60;;;7.60;99.90;;;;;;5073143;28;20023;-85
2023/01/15 00:36:41;;;;;;;10.37;1.43;;;7.50;99.90;;;;;;5056322;28;20119;-84
2023/01/15 00:39:06;;;;;;;12.70;1.20;;;7.50;99.90;;;;;;5056507;28;20488;-85
2023/01/15 00:41:32;;;;;;;12.40;1.83;;;7.50;99.90;;;;;;5056221;28;20029;-86
2023/01/15 00:43:58;;;;;;;11.87;1.73;;;7.50;99.90;;;;;;5089996;28;20037;-85
2023/01/15 00:46:23;;;;;;;16.93;2.30;;;7.50;99.90;;;;;;5056530;28;20025;-85
2023/01/15 00:48:49;;;;;;;11.77;1.40;;;7.50;99.90;;;;;;5073074;28;20016;-86
2023/01/15 00:51:15;;;;;;;16.70;2.10;;;7.50;99.90;;;;;;5056136;28;20021;-86
2023/01/15 00:53:40;;;;;;;19.80;2.47;;;7.40;99.90;;;;;;5056212;28;20029;-85
2023/01/15 00:56:06;;;;;;;10.70;1.47;;;7.50;99.90;;;;;;5072831;28;20035;-84
2023/01/15 00:58:35;;;;;;;13.50;1.80;;;7.50;99.90;;;;;;5089390;28;20024;-85
2023/01/15 01:01:00;;;;;;;13.50;1.73;;;7.50;99.90;;;;;;5089815;28;20036;-85
2023/01/15 01:03:26;;;;;;;12.53;1.60;;;7.50;99.90;;;;;;5055954;28;20021;-86
2023/01/15 01:05:52;;;;;;;8.00;1.30;;;7.50;99.90;;;;;;5072494;28;20025;-83
2023/01/15 01:08:18;;;;;;;17.70;1.47;;;7.50;99.90;;;;;;5056002;28;20024;-85
2023/01/15 01:10:44;;;;;;;10.90;1.10;;;7.40;99.90;;;;;;5055765;28;20483;-80
2023/01/15 01:13:10;;;;;;;12.60;1.53;;;7.40;99.90;;;;;;5055610;28;20013;-80
2023/01/15 01:15:37;;;;;;;10.57;1.37;;;7.40;99.90;;;;;;5055527;28;20392;-79
2023/01/15 01:18:03;;;;;;;11.27;1.07;;;7.50;99.90;;;;;;5072232;28;20028;-81
2023/01/15 01:20:30;;;;;;;14.57;1.63;;;7.40;99.90;;;;;;5071984;28;20104;-81
2023/01/15 01:22:56;;;;;;;11.43;1.43;;;7.40;99.90;;;;;;5072384;28;20067;-81
2023/01/15 01:25:22;;;;;;;10.27;1.17;;;7.40;99.90;;;;;;5055419;28;20021;-81
2023/01/15 01:27:47;;;;;;;12.43;1.20;;;7.40;99.90;;;;;;5055405;28;20435;-81
2023/01/15 01:30:14;;;;;;;9.80;1.30;;;7.40;99.90;;;;;;5055382;28;20021;-80
2023/01/15 01:32:43;;;;;;;17.47;2.03;;;7.40;99.90;;;;;;5071703;28;20075;-80
2023/01/15 01:35:09;;;;;;;13.43;1.97;;;7.40;99.90;;;;;;5071939;28;20020;-80
2023/01/15 01:37:35;;;;;;;12.07;1.03;;;7.40;99.90;;;;;;5071908;28;20049;-80
2023/01/15 01:40:01;;;;;;;12.37;1.13;;;7.40;99.90;;;;;;5071918;28;20017;-78
2023/01/15 01:42:27;;;;;;;9.50;1.20;;;7.40;99.90;;;;;;5055250;28;20036;-78
2023/01/15 01:45:02;;;;;;;15.87;1.10;;;7.30;99.90;;;;;;5072065;28;20497;-79
2023/01/15 01:47:29;;;;;;;16.67;1.73;;;7.30;99.90;;;;;;5071862;28;20017;-81
2023/01/15 01:50:06;;;;;;;12.13;1.40;;;7.30;99.90;;;;;;5072071;28;20028;-79
2023/01/15 01:52:45;;;;;;;16.00;1.20;;;7.30;99.90;;;;;;5072031;28;20020;-79
2023/01/15 01:55:14;;;;;;;17.43;1.87;;;7.30;99.90;;;;;;5071763;28;20024;-79
2023/01/15 01:57:40;;;;;;;9.63;1.27;;;7.30;99.90;;;;;;5071792;28;20025;-81
2023/01/15 02:00:09;;;;;;;14.00;1.27;;;7.30;99.90;;;;;;5071743;28;20377;-79
2023/01/15 02:02:35;;;;;;;13.90;1.33;;;7.20;99.90;;;;;;5055265;28;20032;-80
2023/01/15 02:05:02;;;;;;;10.60;1.17;;;7.20;99.90;;;;;;5055013;28;20074;-82
2023/01/15 02:07:32;;;;;;;13.33;1.07;;;7.20;99.90;;;;;;5055601;28;20380;-80
2023/01/15 02:09:57;;;;;;;15.83;1.30;;;7.20;99.90;;;;;;5057437;28;20473;-81
2023/01/15 02:12:30;;;;;;;11.00;0.80;;;7.20;99.90;;;;;;5075980;28;20050;-84
2023/01/15 02:15:11;;;;;;;10.80;1.37;;;7.20;99.90;;;;;;5076030;28;20115;-86
2023/01/15 02:17:46;;;;;;;9.90;1.30;;;7.20;99.90;;;;;;5075731;28;20060;-85
2023/01/15 02:20:27;;;;;;;15.97;1.40;;;7.20;99.90;;;;;;5075659;28;20107;-84
2023/01/15 02:23:21;;;;;;;13.33;1.57;;;7.20;99.90;;;;;;5075530;28;20035;-87
2023/01/15 02:26:07;;;;;;;11.10;1.83;;;7.20;99.90;;;;;;5075300;28;20034;-84
2023/01/15 02:28:37;;;;;;;14.37;1.43;;;7.20;99.90;;;;;;5075636;28;20063;-86
2023/01/15 02:31:25;;;;;;;12.77;2.17;;;7.10;99.90;;;;;;5075203;28;20109;-87
2023/01/15 02:34:00;;;;;;;15.13;1.20;;;7.10;99.90;;;;;;5075452;28;20033;-85
2023/01/15 02:36:30;;;;;;;8.20;0.83;;;7.10;99.90;;;;;;5075371;28;20115;-85
2023/01/15 02:39:00;;;;;;;12.83;1.53;;;7.10;99.90;;;;;;5075155;28;20063;-83
2023/01/15 02:41:32;;;;;;;14.67;1.50;;;7.10;99.90;;;;;;5076665;28;20025;-86
2023/01/15 02:44:01;;;;;;;9.90;1.00;;;7.00;99.90;;;;;;5087584;28;20035;-85
2023/01/15 02:46:31;;;;;;;11.80;1.80;;;7.00;99.90;;;;;;5090099;28;20025;-84
2023/01/15 02:48:59;;;;;;;9.07;1.40;;;7.00;99.90;;;;;;5077076;28;20078;-86
2023/01/15 02:51:30;;;;;;;10.00;1.03;;;7.00;99.90;;;;;;5075739;28;20094;-84
2023/01/15 02:54:00;;;;;;;17.17;1.60;;;7.10;99.90;;;;;;5076139;28;20369;-85
2023/01/15 02:56:34;;;;;;;11.10;1.10;;;7.00;99.90;;;;;;5076539;28;20500;-84
2023/01/15 02:59:05;;;;;;;9.83;1.03;;;6.90;99.90;;;;;;5074925;28;20465;-84
2023/01/15 03:01:44;;;;;;;15.03;1.73;;;6.90;99.90;;;;;;5075046;28;20105;-84
2023/01/15 03:04:27;;;;;;;13.57;1.63;;;6.90;99.90;;;;;;5075157;28;20481;-86
2023/01/15 03:07:08;;;;;;;18.40;1.93;;;6.90;99.90;;;;;;5076096;28;20567;-84
2023/01/15 03:09:35;;;;;;;12.07;1.40;;;6.90;99.90;;;;;;5074888;28;20036;-86
2023/01/15 03:12:16;;;;;;;12.70;1.37;;;6.90;99.90;;;;;;5074923;28;20024;-86
2023/01/15 03:14:59;;;;;;;14.93;1.37;;;6.90;99.90;;;;;;5074648;28;20052;-86
2023/01/15 03:17:38;;;;;;;15.33;1.27;;;6.90;99.90;;;;;;5075011;28;20025;-84
2023/01/15 03:20:15;;;;;;;14.77;1.57;;;6.90;99.90;;;;;;5074384;28;20035;-84
2023/01/15 03:22:45;;;;;;;17.70;1.60;;;6.90;99.90;;;;;;5074355;28;20036;-86
2023/01/15 03:25:28;;;;;;;7.13;1.20;;;6.90;99.90;;;;;;5074570;28;20111;-85
2023/01/15 03:27:58;;;;;;;9.60;1.03;;;6.90;99.90;;;;;;5074409;28;20086;-84
2023/01/15 03:30:24;;;;;;;15.50;1.63;;;6.90;99.90;;;;;;5074477;28;20021;-84
2023/01/15 03:32:52;;;;;;;13.50;1.70;;;6.90;99.90;;;;;;5074289;28;20104;-84
2023/01/15 03:35:48;;;;;;;11.57;1.53;;;6.90;99.90;;;;;;5074254;28;20077;-84
2023/01/15 03:38:17;;;;;;;16.53;1.40;;;6.90;99.90;;;;;;5075495;28;20025;-81
2023/01/15 03:40:59;;;;;;;6.33;0.90;;;6.80;99.90;;;;;;5073990;28;20016;-81
2023/01/15 03:43:47;;;;;;;9.70;1.27;;;6.90;99.90;;;;;;5075243;28;20029;-79
2023/01/15 03:46:18;;;;;;;12.37;1.40;;;6.90;99.90;;;;;;5073986;28;20492;-81
2023/01/15 03:49:09;;;;;;;15.30;1.93;;;6.90;99.90;;;;;;5073871;28;20086;-81
2023/01/15 03:51:38;;;;;;;12.37;1.80;;;6.80;99.90;;;;;;5073945;28;20024;-80
2023/01/15 03:54:10;;;;;;;10.60;1.60;;;6.80;99.90;;;;;;5073724;28;20031;-79
2023/01/15 03:57:22;;;;;;;12.10;1.60;;;6.80;99.90;;;;;;5073986;28;20124;-79
2023/01/15 03:59:53;;;;;;;13.10;1.70;;;6.90;99.90;;;;;;5074489;28;20033;-81
2023/01/15 04:02:20;;;;;;;7.20;1.30;;;6.80;99.90;;;;;;5073603;28;20033;-79
2023/01/15 04:04:47;;;;;;;14.07;2.73;;;6.90;99.90;;;;;;5073382;28;20036;-80
2023/01/15 04:07:14;;;;;;;10.00;1.30;;;6.90;99.90;;;;;;5056690;28;20074;-81
2023/01/15 04:09:40;;;;;;;10.50;1.10;;;6.90;99.90;;;;;;5056974;28;20090;-80
2023/01/15 04:12:06;;;;;;;12.50;1.20;;;6.80;99.90;;;;;;5073544;28;20177;-80
2023/01/15 04:14:32;;;;;;;10.67;1.13;;;6.80;99.90;;;;;;5056807;28;20532;-84
2023/01/15 04:16:58;;;;;;;10.50;1.43;;;6.90;99.90;;;;;;5073563;28;20028;-84
2023/01/15 04:19:24;;;;;;;10.43;2.13;;;6.80;99.90;;;;;;5056924;28;20366;-85
2023/01/15 04:21:50;;;;;;;9.50;1.80;;;6.90;99.90;;;;;;5056727;28;20024;-85
2023/01/15 04:24:15;;;;;;;13.87;1.17;;;6.90;99.90;;;;;;5073209;28;20123;-86
2023/01/15 04:26:41;;;;;;;9.50;1.00;;;6.90;99.90;;;;;;5056893;28;20024;-85
2023/01/15 04:29:07;;;;;;;14.07;1.20;;;6.90;99.90;;;;;;5056640;28;20056;-86
2023/01/15 04:31:34;;;;;;;9.77;1.20;;;6.80;99.90;;;;;;5056463;28;20076;-85
2023/01/15 04:34:00;;;;;;;10.93;1.70;;;6.90;99.90;;;;;;5056580;28;20473;-84
2023/01/15 04:36:26;;;;;;;9.67;1.10;;;6.90;99.90;;;;;;5071816;28;20894;-86
2023/01/15 04:38:53;;;;;;;15.80;1.53;;;6.80;99.90;;;;;;5035843;28;20033;-85
2023/01/15 04:44:06;;;;;;;17.95;2.58;;;6.90;99.90;;;;;;5051839;28;20067;-87
2023/01/15 04:46:44;;;;;;;13.73;1.33;;;6.90;99.90;;;;;;5052446;28;20017;-85
2023/01/15 04:49:15;;;;;;;10.80;1.47;;;6.90;99.90;;;;;;5052072;28;20074;-85
2023/01/15 04:51:42;;;;;;;8.17;1.33;;;6.80;99.90;;;;;;5052834;28;20067;-86
2023/01/15 04:54:10;;;;;;;14.10;1.87;;;6.80;99.90;;;;;;5053067;28;20375;-88
2023/01/15 04:56:41;;;;;;;14.43;1.33;;;6.80;99.90;;;;;;5052943;28;20021;-86
2023/01/15 04:59:07;;;;;;;15.40;1.50;;;6.80;99.90;;;;;;5052893;28;20021;-84
2023/01/15 05:01:33;;;;;;;15.07;1.53;;;6.80;99.90;;;;;;5036017;28;20028;-85
2023/01/15 05:04:00;;;;;;;12.00;2.00;;;6.90;99.90;;;;;;5052904;28;20074;-84
2023/01/15 05:06:26;;;;;;;13.77;1.40;;;6.90;99.90;;;;;;5036151;28;20047;-86
2023/01/15 05:08:52;;;;;;;11.47;1.63;;;6.80;99.90;;;;;;5036508;28;20492;-84
2023/01/15 05:11:18;;;;;;;11.33;1.53;;;6.90;99.90;;;;;;5053716;28;20377;-85
2023/01/15 05:13:43;;;;;;;8.53;1.20;;;6.80;99.90;;;;;;5035910;28;20053;-84
2023/01/15 05:16:22;;;;;;;12.37;1.53;;;6.90;99.90;;;;;;5035902;28;20516;-87
2023/01/15 05:18:48;;;;;;;12.33;1.53;;;6.90;99.90;;;;;;5052753;28;20087;-85
2023/01/15 05:21:20;;;;;;;8.20;1.30;;;6.90;99.90;;;;;;5035673;28;20037;-85
2023/01/15 05:23:47;;;;;;;19.53;1.60;;;6.80;99.90;;;;;;5054659;28;20021;-85
2023/01/15 05:26:12;;;;;;;9.10;1.30;;;6.80;99.90;;;;;;5054358;28;20141;-84
2023/01/15 05:28:38;;;;;;;11.23;1.73;;;6.80;99.90;;;;;;5053751;28;20477;-86
2023/01/15 05:31:06;;;;;;;13.77;1.43;;;6.80;99.90;;;;;;5063627;28;20025;-84
2023/01/15 05:33:32;;;;;;;15.50;1.70;;;6.80;99.90;;;;;;5056878;28;20035;-85
2023/01/15 05:36:03;;;;;;;12.13;1.40;;;6.70;99.90;;;;;;5034891;28;20025;-85
2023/01/15 05:38:29;;;;;;;15.27;1.60;;;6.70;99.90;;;;;;5050473;28;20119;-87
2023/01/15 05:40:54;;;;;;;13.47;1.63;;;6.70;99.90;;;;;;5034541;28;20116;-86
2023/01/15 05:43:20;;;;;;;12.53;1.70;;;6.70;99.90;;;;;;5035221;28;20033;-85
2023/01/15 05:45:46;;;;;;;13.03;1.77;;;6.60;99.90;;;;;;5034943;28;20032;-85
2023/01/15 05:48:11;;;;;;;9.83;1.63;;;6.60;99.90;;;;;;5051903;28;20033;-85
2023/01/15 05:50:37;;;;;;;9.50;1.20;;;6.60;99.90;;;;;;5035619;28;20025;-83
2023/01/15 05:53:03;;;;;;;15.17;1.80;;;6.50;99.90;;;;;;5035389;28;20029;-84
2023/01/15 05:55:28;;;;;;;12.47;1.60;;;6.60;99.90;;;;;;5035446;28;20467;-79
2023/01/15 05:57:54;;;;;;;10.47;1.60;;;6.60;99.90;;;;;;5051761;28;20029;-81
2023/01/15 06:00:20;;;;;;;14.20;1.30;;;6.60;99.90;;;;;;5051904;28;20052;-81
2023/01/15 06:02:49;;;;;;;11.57;1.43;;;6.50;99.90;;;;;;5035046;28;20052;-80
2023/01/15 06:05:19;;;;;;;9.63;1.13;;;6.50;99.90;;;;;;5035126;28;20485;-80
2023/01/15 06:07:47;;;;;;;10.37;1.40;;;6.50;99.90;;;;;;5052144;28;20079;-81
2023/01/15 06:10:14;;;;;;;8.90;1.00;;;6.50;99.90;;;;;;5035971;28;20022;-80
2023/01/15 06:12:40;;;;;;;7.60;1.13;;;6.50;99.90;;;;;;5053836;28;20079;-81
2023/01/15 06:15:06;;;;;;;11.60;1.00;;;6.60;99.90;;;;;;5052195;28;20029;-80
2023/01/15 06:17:32;;;;;;;14.23;1.20;;;6.50;99.90;;;;;;5035048;28;20025;-81
2023/01/15 06:19:57;;;;;;;17.67;1.73;;;6.50;99.90;;;;;;5035275;28;20037;-80
2023/01/15 06:22:23;;;;;;;11.83;1.97;;;6.50;99.90;;;;;;5034971;28;20426;-81
2023/01/15 06:24:48;;;;;;;8.40;1.00;;;6.60;99.90;;;;;;5052708;28;20438;-80
2023/01/15 06:27:14;;;;;;;11.03;1.20;;;6.60;99.90;;;;;;5034892;28;20079;-82
2023/01/15 06:29:40;;;;;;;8.90;1.57;;;6.50;99.90;;;;;;5051706;28;20496;-81
2023/01/15 06:32:05;;;;;;;11.27;1.00;;;6.50;99.90;;;;;;5034656;28;20469;-79
2023/01/15 06:34:31;;;;;;;12.87;1.30;;;6.50;99.90;;;;;;5035060;28;20075;-81
2023/01/15 06:36:57;;;;;;;9.40;1.10;;;6.50;99.90;;;;;;5051788;28;20082;-82
2023/01/15 06:39:22;;;;;;;10.93;1.13;;;6.40;99.90;;;;;;5051587;28;20115;-81
2023/01/15 06:47:20;;;;;;;10.68;1.05;;;6.40;99.90;;;;;;5053050;28;20040;-79
2023/01/15 06:49:56;;;;;;;12.97;1.20;;;6.50;99.90;;;;;;5051450;28;20484;-81
2023/01/15 06:52:24;;;;;;;4.37;1.00;;;6.50;99.90;;;;;;5051474;28;20017;-79
2023/01/15 06:54:50;;;;;;;14.03;1.37;;;6.40;99.90;;;;;;5051308;28;20025;-81
2023/01/15 06:57:17;;;;;;;15.27;1.67;;;6.50;99.90;;;;;;5055277;28;20031;-80
2023/01/15 06:59:43;;;;;;;13.23;2.40;;;6.50;99.90;;;;;;5055145;28;20029;-80
2023/01/15 07:02:10;;;;;;;9.03;0.87;;;6.40;99.90;;;;;;5056669;28;20116;-80
2023/01/15 07:04:36;;;;;;;14.30;1.30;;;6.40;99.90;;;;;;5038328;28;20040;-81
2023/01/15 07:07:02;;;;;;;13.67;1.20;;;6.50;99.90;;;;;;5055226;28;20029;-81
2023/01/15 07:09:27;;;;;;;8.43;1.10;;;6.50;99.90;;;;;;5056124;28;20025;-82
2023/01/15 07:11:53;;;;;;;12.93;1.20;;;6.40;99.90;;;;;;5038957;28;20033;-81
2023/01/15 07:14:22;;;;;;;16.57;1.43;;;6.30;99.90;;;;;;5038511;28;20028;-82
2023/01/15 07:16:48;;;;;;;10.33;1.20;;;6.20;99.90;;;;;;5055350;28;20036;-81
2023/01/15 07:19:14;;;;;;;13.17;1.03;;;6.30;99.90;;;;;;5054943;28;20029;-80
2023/01/15 07:21:39;;;;;;;17.13;1.60;;;6.10;99.90;;;;;;5054572;28;20051;-80
2023/01/15 07:24:05;;;;;;;8.10;1.20;;;6.00;99.90;;;;;;5037749;28;20025;-80
2023/01/15 07:26:31;;;;;;;12.30;1.13;;;5.90;99.90;;;;;;5054466;28;20070;-80
2023/01/15 07:28:56;;;;;;;12.73;1.50;;;5.80;99.90;;;;;;5037973;28;20085;-80
2023/01/15 07:31:22;;;;;;;10.07;1.00;;;5.80;99.90;;;;;;5037462;28;20037;-80
2023/01/15 07:33:48;;;;;;;10.20;1.20;;;5.80;99.90;;;;;;5037787;28;20097;-80
2023/01/15 07:36:14;;;;;;;8.97;2.00;;;5.90;99.90;;;;;;5054294;28;20082;-81
2023/01/15 07:38:40;;;;;;;10.03;1.40;;;5.80;99.90;;;;;;5054064;28;20112;-82
2023/01/15 07:52:01;;;;;;;15.15;1.25;;;5.80;99.90;;;;;;5054428;28;20542;-79
2023/01/15 07:54:28;;;;;;;8.77;0.83;;;5.70;99.90;;;;;;5037516;28;20036;-80
2023/01/15 07:56:54;;;;;;;11.13;1.50;;;5.80;99.90;;;;;;5037190;28;20063;-82
2023/01/15 07:59:20;;;;;;;9.40;1.40;;;5.80;99.90;;;;;;5053824;28;20029;-79
2023/01/15 08:01:46;;;;;;;11.13;1.10;;;5.80;99.90;;;;;;5037001;28;20032;-80
2023/01/15 08:04:11;;;;;;;11.87;1.20;;;5.90;99.90;;;;;;5053466;28;20029;-80
2023/01/15 08:06:37;;;;;;;10.37;1.00;;;5.80;99.90;;;;;;5036225;28;20017;-79
2023/01/15 08:09:03;;;;;;;11.73;1.47;;;5.80;99.90;;;;;;5036640;28;20078;-81
2023/01/15 08:16:57;;;;;;;;;;;5.80;99.90;;;;;;5055352;28;20048;-79
2023/01/15 08:19:24;;;;;;;11.07;1.50;;;5.80;99.90;;;;;;5036573;28;19913;-80
2023/01/15 08:21:50;;;;;;;7.33;1.10;;;5.80;99.90;;;;;;5036821;28;20033;-80
2023/01/15 08:24:16;;;;;;;13.70;1.63;;;5.80;99.90;;;;;;5053202;28;20082;-80
2023/01/15 08:26:42;;;;;;;7.50;1.00;;;5.80;99.90;;;;;;5036691;28;20029;-81
2023/01/15 08:29:07;;;;;;;13.60;1.83;;;5.80;99.90;;;;;;5053219;28;20057;-80
2023/01/15 08:31:33;;;;;;;9.97;1.20;;;5.80;99.90;;;;;;5036330;28;20033;-80
2023/01/15 08:33:59;;;;;;;11.47;1.40;;;5.80;99.90;;;;;;5053094;28;20048;-81
2023/01/15 08:36:25;;;;;;;17.37;1.50;;;5.80;99.90;;;;;;5052973;28;20098;-82
2023/01/15 08:38:51;;;;;;;13.07;1.77;;;5.90;99.90;;;;;;5053061;28;20091;-79
2023/01/15 08:41:16;;;;;;;11.73;1.83;;;5.90;99.90;;;;;;5036313;28;20037;-80
2023/01/15 08:43:44;;;;;;;8.80;1.13;;;5.90;99.90;;;;;;5052723;28;20035;-81
2023/01/15 08:46:10;;;;;;;11.87;1.07;;;6.00;99.90;;;;;;5036563;28;20029;-80
2023/01/15 08:48:36;;;;;;;8.47;1.17;;;6.00;99.90;;;;;;5036335;28;20112;-80
2023/01/15 08:51:07;;;;;;;10.53;1.37;;;5.90;99.60;;;;;;5036208;28;20480;-79
2023/01/15 08:53:32;;;;;;;11.40;1.10;;;6.00;99.30;;;;;;5052770;28;20397;-82
2023/01/15 08:55:58;;;;;;;10.20;1.73;;;6.00;99.00;;;;;;5035970;28;20029;-81
2023/01/15 08:58:28;;;;;;;6.83;0.80;;;6.00;99.10;;;;;;5052367;28;20128;-80
2023/01/15 09:00:54;;;;;;;12.13;1.60;;;6.10;99.10;;;;;;5053764;28;20366;-81
2023/01/15 09:03:20;;;;;;;7.07;0.70;;;6.10;99.30;;;;;;5035997;28;20035;-80
2023/01/15 09:05:45;;;;;;;15.60;1.57;;;6.10;98.80;;;;;;5052368;28;20171;-81
2023/01/15 09:08:11;;;;;;;10.00;1.30;;;6.10;98.90;;;;;;5035768;28;20029;-81
2023/01/15 09:10:36;;;;;;;6.70;0.80;;;6.10;98.00;;;;;;5052234;28;20025;-80
2023/01/15 09:13:03;;;;;;;8.53;1.00;;;6.20;98.30;;;;;;5035706;28;20025;-81
2023/01/15 09:15:31;;;;;;;9.50;1.20;;;6.20;98.00;;;;;;5035674;28;20470;-80
2023/01/15 09:17:57;;;;;;;8.37;1.10;;;6.20;97.40;;;;;;5052271;28;20119;-80
2023/01/15 09:20:23;;;;;;;16.20;1.40;;;6.30;97.20;;;;;;5052205;28;20028;-79
2023/01/15 09:22:50;;;;;;;11.40;1.60;;;6.30;97.00;;;;;;5052157;28;20021;-80
2023/01/15 09:25:18;;;;;;;12.47;1.20;;;6.30;96.50;;;;;;5052255;28;20024;-81
2023/01/15 09:27:44;;;;;;;6.60;0.97;;;6.40;96.60;;;;;;5052101;28;20155;-80
2023/01/15 09:30:15;;;;;;;8.83;1.40;;;6.40;96.70;;;;;;5052113;28;20025;-81
2023/01/15 09:32:41;;;;;;;14.80;1.10;;;6.40;96.30;;;;;;5051824;28;20037;-80
2023/01/15 09:35:07;;;;;;;9.03;0.80;;;6.40;96.40;;;;;;5037695;28;20032;-82
2023/01/15 09:37:33;;;;;;;9.73;1.10;;;6.50;96.10;;;;;;5053334;28;20047;-81
2023/01/15 09:40:01;;;;;;;12.80;1.67;;;6.60;96.40;;;;;;5035465;28;20128;-81
2023/01/15 09:42:40;;;;;;;5.83;0.90;;;6.60;96.30;;;;;;5051975;28;20029;-80
2023/01/15 09:45:27;;;;;;;6.40;0.93;;;6.80;96.30;;;;;;5053186;28;20028;-80
2023/01/15 09:48:16;;;;;;;9.73;1.40;;;6.90;96.50;;;;;;5052033;28;20071;-80
2023/01/15 09:50:48;;;;;;;9.97;1.20;;;7.20;95.90;;;;;;5052797;28;20021;-82
2023/01/15 09:53:17;;;;;;;11.97;1.73;;;7.40;96.70;;;;;;5051829;28;20120;-82
2023/01/15 09:55:47;;;;;;;5.60;0.97;;;7.70;96.20;;;;;;5052989;28;20029;-82
2023/01/15 09:58:16;;;;;;;6.23;0.87;;;8.10;96.50;;;;;;5052962;28;20112;-81
2023/01/15 10:00:48;;;;;;;7.63;1.10;;;8.60;95.90;;;;;;5051773;28;20101;-81
2023/01/15 10:03:46;;;;;;;11.25;0.93;;;9.00;95.90;;;;;;5051460;28;20032;-81
2023/01/15 10:06:26;;;;;;;9.48;1.00;;;9.60;95.70;;;;;;5051544;28;20067;-82
2023/01/15 10:09:10;;;;;;;7.18;1.05;;;10.20;93.50;;;;;;5051799;28;20021;-83
2023/01/15 10:14:56;;;;;;;9.35;1.10;;;10.70;86.20;;;;;;5053282;28;20566;-82
2023/01/15 10:17:28;;;;;;;7.75;0.90;;;11.00;84.70;;;;;;5051765;28;20029;-82
2023/01/15 10:19:54;;;;;;;8.57;1.17;;;11.20;84.30;;;;;;5052747;28;20037;-82
2023/01/15 10:22:36;;;;;;;11.65;0.88;;;11.30;84.50;;;;;;5052295;28;20116;-80
2023/01/15 10:25:11;;;;;;;9.30;1.38;;;11.70;84.50;;;;;;5051569;28;20028;-83
2023/01/15 10:27:39;;;;;;;7.38;0.80;;;11.90;82.50;;;;;;5051817;28;20017;-82
2023/01/15 10:30:16;;;;;;;7.07;1.08;;;12.00;80.30;;;;;;5052253;28;20126;-82
2023/01/15 10:32:51;;;;;;;8.68;1.05;;;12.00;78.00;;;;;;5055389;28;20124;-80
2023/01/15 10:35:40;;;;;;;11.35;1.60;;;12.10;76.90;;;;;;5055456;28;20021;-83
2023/01/15 10:38:23;;;;;;;11.90;1.80;;;12.10;75.70;;;;;;5056758;28;20055;-82
2023/01/15 10:40:55;;;;;;;8.98;1.40;;;11.90;74.30;;;;;;5055546;28;20477;-82
2023/01/15 10:43:43;;;;;;;7.75;1.27;;;11.90;74.50;;;;;;5056338;28;20036;-80
2023/01/15 10:46:36;;;;;;;7.80;0.90;;;11.70;72.80;;;;;;5056504;28;20104;-79
2023/01/15 10:49:09;;;;;;;8.73;1.08;;;11.40;72.30;;;;;;5054906;28;20025;-84
2023/01/15 10:51:41;;;;;;;8.63;1.13;;;11.00;73.50;;;;;;5055487;28;20071;-84
2023/01/15 10:54:20;;;;;;;10.05;1.25;;;10.60;73.10;;;;;;5055046;28;20029;-83
2023/01/15 10:57:10;;;;;;;6.97;1.30;;;10.30;74.50;;;;;;5055242;28;20029;-83
2023/01/15 10:59:55;;;;;;;11.15;1.25;;;10.10;75.70;;;;;;5054661;28;20112;-82
2023/01/15 11:02:39;;;;;;;9.70;1.30;;;9.90;75.90;;;;;;5054663;28;20469;-83
2023/01/15 11:05:05;;;;;;;11.57;1.13;;;9.80;77.00;;;;;;5055905;28;20025;-82
2023/01/15 11:07:46;;;;;;;12.40;1.50;;;9.60;77.20;;;;;;5054776;28;20074;-83
2023/01/15 11:10:17;;;;;;;8.77;1.27;;;9.40;77.90;;;;;;5054732;28;20475;-83
2023/01/15 11:21:30;;;;;;;7.07;1.30;;;9.50;79.60;;;;;;5054832;28;20044;-83
2023/01/15 11:23:58;;;;;;;8.40;1.10;;;9.60;79.00;;;;;;5054574;28;20036;-83
2023/01/15 11:26:34;;;;;;;10.10;1.37;;;9.50;80.20;;;;;;5037928;28;20090;-82
2023/01/15 11:29:12;;;;;;;10.60;1.37;;;9.40;79.70;;;;;;5055854;28;20017;-82
2023/01/15 11:31:39;;;;;;;9.20;1.10;;;9.20;80.40;;;;;;5054684;28;20029;-85
2023/01/15 11:34:20;;;;;;;8.03;1.33;;;9.00;81.30;;;;;;5054170;28;20086;-85
2023/01/15 11:36:49;;;;;;;9.87;1.07;;;8.90;82.30;;;;;;5054406;28;20021;-85
2023/01/15 11:39:27;;;;;;;7.13;0.97;;;8.90;83.00;;;;;;5054350;28;20059;-84
2023/01/15 11:51:00;;;;;;;7.73;0.90;;;9.10;83.30;;;;;;5054983;28;20040;-84
2023/01/15 11:53:31;;;;;;;11.25;1.30;;;9.00;83.60;;;;;;5054166;28;20497;-83
2023/01/15 11:56:05;;;;;;;9.90;1.77;;;9.00;83.80;;;;;;5053740;28;20390;-85
2023/01/15 11:58:59;;;;;;;9.85;1.10;;;8.70;86.00;;;;;;5053992;28;20025;-84
2023/01/15 12:01:29;;;;;;;13.27;1.48;;;8.50;88.10;;;;;;5053889;28;20090;-84
2023/01/15 12:03:57;;;;;;;8.60;1.20;;;8.40;88.80;;;;;;5053893;28;20435;-84
2023/01/15 12:06:24;;;;;;;8.73;0.90;;;8.30;89.50;;;;;;5053770;28;20078;-84
2023/01/15 12:08:54;;;;;;;6.93;1.20;;;8.20;89.60;;;;;;5037285;28;20021;-84
2023/01/15 12:11:53;;;;;;;8.47;1.83;;;8.10;90.10;;;;;;5054107;28;20032;-84
2023/01/15 12:14:30;;;;;;;8.20;1.03;;;8.00;90.00;;;;;;5053572;28;20029;-84
2023/01/15 12:17:11;;;;;;;10.57;1.00;;;8.20;90.10;;;;;;5053498;28;20025;-84
2023/01/15 12:19:41;;;;;;;10.57;1.10;;;8.30;89.80;;;;;;5053320;28;20033;-83
2023/01/15 12:22:28;;;;;;;6.40;1.20;;;8.40;89.40;;;;;;5053826;28;20381;-84
2023/01/15 12:25:13;;;;;;;10.10;1.07;;;8.50;89.00;;;;;;5053318;28;20029;-84
2023/01/15 12:27:46;;;;;;;10.07;1.10;;;8.60;88.80;;;;;;5054978;28;20021;-86
2023/01/15 12:30:12;;;;;;;8.07;0.98;;;8.80;88.10;;;;;;5054513;28;20025;-82
2023/01/15 12:32:43;;;;;;;8.73;1.00;;;8.90;88.20;;;;;;5054140;28;20049;-87
2023/01/15 12:35:24;;;;;;;8.57;0.90;;;8.90;88.00;;;;;;5053295;28;20021;-84
2023/01/15 12:37:53;;;;;;;7.70;0.80;;;8.80;88.00;;;;;;5054302;28;20061;-86
2023/01/15 12:40:46;;;;;;;6.43;1.07;;;8.70;90.30;;;;;;5051585;28;20016;-85
2023/01/15 12:46:28;;;;;;;5.73;0.83;;;8.30;92.00;;;;;;5053828;28;20104;-86
2023/01/15 12:49:21;;;;;;;6.73;0.87;;;8.10;92.90;;;;;;5051992;28;20013;-85
2023/01/15 12:51:58;;;;;;;4.00;0.70;;;7.90;92.90;;;;;;5042216;28;20021;-83
2023/01/15 12:54:29;;;;;;;4.27;0.73;;;7.80;93.20;;;;;;5030675;28;20371;-86
2023/01/15 12:57:14;;;;;;;5.53;0.80;;;7.70;93.70;;;;;;5031422;28;20386;-86
2023/01/15 12:59:56;;;;;;;6.27;0.80;;;7.60;94.30;;;;;;5032434;28;20021;-84
2023/01/15 13:02:37;;;;;;;6.33;0.90;;;7.60;94.80;;;;;;5032902;28;20029;-85
2023/01/15 13:05:17;;;;;;;4.90;1.00;;;7.50;95.20;;;;;;5050294;28;20037;-85
2023/01/15 13:07:58;;;;;;;9.93;1.10;;;7.50;95.80;;;;;;5034100;28;20025;-85
2023/01/15 13:10:35;;;;;;;5.10;0.67;;;7.60;95.80;;;;;;5032543;28;20381;-82
2023/01/15 13:13:23;;;;;;;5.87;0.90;;;7.70;95.60;;;;;;5032625;28;20026;-85
2023/01/15 13:15:54;;;;;;;5.17;0.80;;;7.90;95.40;;;;;;5032586;28;20052;-84
2023/01/15 13:18:30;;;;;;;11.13;1.03;;;7.90;94.90;;;;;;5049384;28;20064;-83
2023/01/15 13:20:59;;;;;;;8.43;1.27;;;8.00;94.50;;;;;;5049455;28;20373;-85
2023/01/15 13:23:40;;;;;;;8.83;1.33;;;8.00;94.40;;;;;;5032607;28;20056;-85
2023/01/15 13:26:24;;;;;;;6.23;0.97;;;8.00;93.80;;;;;;5048952;28;20117;-84
2023/01/15 13:29:20;;;;;;;4.78;0.77;;;8.00;93.60;;;;;;5049379;28;20421;-85
2023/01/15 13:31:59;;;;;;;7.33;1.37;;;8.00;94.10;;;;;;5032267;28;20021;-84
2023/01/15 13:34:44;;;;;;;6.07;0.80;;;8.00;94.00;;;;;;5032671;28;20052;-87
2023/01/15 13:37:28;;;;;;;6.80;1.10;;;8.00;94.00;;;;;;5048905;28;20030;-83
2023/01/15 13:40:18;;;;;;;6.37;0.80;;;8.40;94.70;;;;;;5049140;28;20029;-84
2023/01/15 13:42:49;;;;;;;8.50;1.20;;;8.70;94.30;;;;;;5033298;28;20107;-84
2023/01/15 13:45:26;;;;;;;5.60;1.00;;;9.00;93.30;;;;;;5032089;28;20033;-83
2023/01/15 13:47:58;;;;;;;9.83;1.50;;;9.00;92.40;;;;;;5032122;28;20075;-84
2023/01/15 13:50:33;;;;;;;8.70;1.20;;;8.90;91.80;;;;;;5031881;28;20026;-82
2023/01/15 13:53:26;;;;;;;7.43;1.10;;;8.70;92.30;;;;;;5031852;28;20466;-84
2023/01/15 13:55:56;;;;;;;7.50;1.17;;;8.60;92.50;;;;;;5048826;28;20025;-87
2023/01/15 13:58:30;;;;;;;5.47;0.70;;;8.40;92.40;;;;;;5032311;28;20022;-81
2023/01/15 14:01:04;;;;;;;5.47;1.00;;;8.30;93.00;;;;;;5016012;28;20077;-84
2023/01/15 14:03:37;;;;;;;7.23;1.67;;;8.20;94.10;;;;;;5049120;28;20033;-85
2023/01/15 14:06:20;;;;;;;9.47;1.20;;;7.90;94.70;;;;;;5035943;28;20159;-84